sensor_id;sensor_type;location;lat;lon;timestamp;P1;durP1;ratioP1;P2;durP2;ratioP2
37633;SDS011;32048;49.902;22.508;2023-08-21T00:00:16;31.05;;;27.95;;
37633;SDS011;32048;49.902;22.508;2023-08-21T00:03:03;29.83;;;26.60;;
37633;SDS011;32048;49.902;22.508;2023-08-21T00:05:31;35.55;;;28.00;;
37633;SDS011;32048;49.902;22.508;2023-08-21T00:07:58;33.45;;;29.73;;
37633;SDS011;32048;49.902;22.508;2023-08-21T00:10:25;32.13;;;28.58;;
37633;SDS011;32048;49.902;22.508;2023-08-21T00:12:52;31.05;;;27.35;;
37633;SDS011;32048;49.902;22.508;2023-08-21T00:15:20;31.48;;;28.23;;
37633;SDS011;32048;49.902;22.508;2023-08-21T00:17:47;31.50;;;28.10;;
37633;SDS011;32048;49.902;22.508;2023-08-21T00:20:14;32.97;;;28.15;;
37633;SDS011;32048;49.902;22.508;2023-08-21T00:22:41;33.30;;;29.40;;
37633;SDS011;32048;49.902;22.508;2023-08-21T00:25:08;33.45;;;28.70;;
37633;SDS011;32048;49.902;22.508;2023-08-21T00:27:35;32.03;;;28.63;;
37633;SDS011;32048;49.902;22.508;2023-08-21T00:30:02;32.42;;;28.13;;
37633;SDS011;32048;49.902;22.508;2023-08-21T00:32:29;32.47;;;28.42;;
37633;SDS011;32048;49.902;22.508;2023-08-21T00:34:57;35.00;;;28.15;;
37633;SDS011;32048;49.902;22.508;2023-08-21T00:37:23;30.85;;;27.65;;
37633;SDS011;32048;49.902;22.508;2023-08-21T00:39:51;31.77;;;28.35;;
37633;SDS011;32048;49.902;22.508;2023-08-21T00:42:18;31.30;;;28.02;;
37633;SDS011;32048;49.902;22.508;2023-08-21T00:44:45;31.83;;;28.48;;
37633;SDS011;32048;49.902;22.508;2023-08-21T00:47:12;31.33;;;28.15;;
37633;SDS011;32048;49.902;22.508;2023-08-21T00:49:39;31.85;;;27.88;;
37633;SDS011;32048;49.902;22.508;2023-08-21T00:52:10;29.45;;;26.35;;
37633;SDS011;32048;49.902;22.508;2023-08-21T00:54:40;28.90;;;25.92;;
37633;SDS011;32048;49.902;22.508;2023-08-21T00:57:08;32.33;;;25.58;;
37633;SDS011;32048;49.902;22.508;2023-08-21T00:59:36;28.98;;;25.60;;
37633;SDS011;32048;49.902;22.508;2023-08-21T01:02:04;27.55;;;24.73;;
37633;SDS011;32048;49.902;22.508;2023-08-21T01:04:31;28.45;;;25.60;;
37633;SDS011;32048;49.902;22.508;2023-08-21T01:06:58;28.40;;;23.50;;
37633;SDS011;32048;49.902;22.508;2023-08-21T01:09:27;26.88;;;24.02;;
37633;SDS011;32048;49.902;22.508;2023-08-21T01:12:09;28.33;;;24.55;;
37633;SDS011;32048;49.902;22.508;2023-08-21T01:14:48;28.83;;;25.40;;
37633;SDS011;32048;49.902;22.508;2023-08-21T01:17:15;28.77;;;25.77;;
37633;SDS011;32048;49.902;22.508;2023-08-21T01:19:46;26.13;;;23.38;;
37633;SDS011;32048;49.902;22.508;2023-08-21T01:22:16;27.33;;;24.55;;
37633;SDS011;32048;49.902;22.508;2023-08-21T01:24:43;28.08;;;25.27;;
37633;SDS011;32048;49.902;22.508;2023-08-21T01:27:10;27.95;;;24.33;;
37633;SDS011;32048;49.902;22.508;2023-08-21T01:29:39;28.35;;;24.85;;
37633;SDS011;32048;49.902;22.508;2023-08-21T01:32:07;27.13;;;23.80;;
37633;SDS011;32048;49.902;22.508;2023-08-21T01:34:49;26.20;;;23.60;;
37633;SDS011;32048;49.902;22.508;2023-08-21T01:37:18;26.83;;;23.98;;
37633;SDS011;32048;49.902;22.508;2023-08-21T01:39:46;28.17;;;25.25;;
37633;SDS011;32048;49.902;22.508;2023-08-21T01:42:13;27.95;;;25.13;;
37633;SDS011;32048;49.902;22.508;2023-08-21T01:44:40;26.58;;;23.83;;
37633;SDS011;32048;49.902;22.508;2023-08-21T01:47:07;25.75;;;23.13;;
37633;SDS011;32048;49.902;22.508;2023-08-21T01:49:34;25.80;;;22.98;;
37633;SDS011;32048;49.902;22.508;2023-08-21T01:52:01;26.67;;;23.88;;
37633;SDS011;32048;49.902;22.508;2023-08-21T01:54:29;25.38;;;22.98;;
37633;SDS011;32048;49.902;22.508;2023-08-21T01:56:56;26.45;;;22.70;;
37633;SDS011;32048;49.902;22.508;2023-08-21T01:59:24;25.60;;;23.08;;
37633;SDS011;32048;49.902;22.508;2023-08-21T02:01:51;26.98;;;24.17;;
37633;SDS011;32048;49.902;22.508;2023-08-21T02:04:18;26.00;;;23.33;;
37633;SDS011;32048;49.902;22.508;2023-08-21T02:06:45;25.95;;;23.42;;
37633;SDS011;32048;49.902;22.508;2023-08-21T02:09:12;27.20;;;24.23;;
37633;SDS011;32048;49.902;22.508;2023-08-21T02:11:39;26.45;;;23.85;;
37633;SDS011;32048;49.902;22.508;2023-08-21T02:14:06;27.10;;;24.30;;
37633;SDS011;32048;49.902;22.508;2023-08-21T02:16:34;25.80;;;23.20;;
37633;SDS011;32048;49.902;22.508;2023-08-21T02:19:01;26.77;;;24.02;;
37633;SDS011;32048;49.902;22.508;2023-08-21T02:21:28;27.83;;;24.83;;
37633;SDS011;32048;49.902;22.508;2023-08-21T02:23:55;26.90;;;23.70;;
37633;SDS011;32048;49.902;22.508;2023-08-21T02:26:22;26.27;;;23.67;;
37633;SDS011;32048;49.902;22.508;2023-08-21T02:28:49;27.42;;;24.63;;
37633;SDS011;32048;49.902;22.508;2023-08-21T02:31:16;27.30;;;24.60;;
37633;SDS011;32048;49.902;22.508;2023-08-21T02:33:43;27.85;;;25.10;;
37633;SDS011;32048;49.902;22.508;2023-08-21T02:36:10;28.30;;;25.42;;
37633;SDS011;32048;49.902;22.508;2023-08-21T02:38:37;26.88;;;24.02;;
37633;SDS011;32048;49.902;22.508;2023-08-21T02:41:04;27.55;;;24.75;;
37633;SDS011;32048;49.902;22.508;2023-08-21T02:43:31;26.65;;;24.02;;
37633;SDS011;32048;49.902;22.508;2023-08-21T02:45:58;26.77;;;24.08;;
37633;SDS011;32048;49.902;22.508;2023-08-21T02:48:25;27.25;;;24.38;;
37633;SDS011;32048;49.902;22.508;2023-08-21T02:50:52;27.17;;;24.25;;
37633;SDS011;32048;49.902;22.508;2023-08-21T02:53:20;27.85;;;24.60;;
37633;SDS011;32048;49.902;22.508;2023-08-21T02:55:47;29.48;;;26.35;;
37633;SDS011;32048;49.902;22.508;2023-08-21T02:58:14;29.02;;;26.13;;
37633;SDS011;32048;49.902;22.508;2023-08-21T03:00:41;33.53;;;26.05;;
37633;SDS011;32048;49.902;22.508;2023-08-21T03:03:08;28.65;;;25.85;;
37633;SDS011;32048;49.902;22.508;2023-08-21T03:05:35;28.98;;;25.88;;
37633;SDS011;32048;49.902;22.508;2023-08-21T03:08:02;30.13;;;27.05;;
37633;SDS011;32048;49.902;22.508;2023-08-21T03:10:30;29.00;;;26.00;;
37633;SDS011;32048;49.902;22.508;2023-08-21T03:13:00;29.42;;;26.52;;
37633;SDS011;32048;49.902;22.508;2023-08-21T03:15:27;30.25;;;26.60;;
37633;SDS011;32048;49.902;22.508;2023-08-21T03:17:55;30.13;;;25.48;;
37633;SDS011;32048;49.902;22.508;2023-08-21T03:20:22;28.08;;;25.13;;
37633;SDS011;32048;49.902;22.508;2023-08-21T03:22:50;28.30;;;25.48;;
37633;SDS011;32048;49.902;22.508;2023-08-21T03:25:17;29.98;;;26.77;;
37633;SDS011;32048;49.902;22.508;2023-08-21T03:27:44;30.23;;;27.02;;
37633;SDS011;32048;49.902;22.508;2023-08-21T03:30:15;32.53;;;28.60;;
37633;SDS011;32048;49.902;22.508;2023-08-21T03:32:43;29.20;;;26.20;;
37633;SDS011;32048;49.902;22.508;2023-08-21T03:35:10;31.98;;;28.58;;
37633;SDS011;32048;49.902;22.508;2023-08-21T03:37:38;31.10;;;27.83;;
37633;SDS011;32048;49.902;22.508;2023-08-21T03:40:05;32.72;;;28.15;;
37633;SDS011;32048;49.902;22.508;2023-08-21T03:42:32;31.05;;;27.95;;
37633;SDS011;32048;49.902;22.508;2023-08-21T03:44:59;30.92;;;27.70;;
37633;SDS011;32048;49.902;22.508;2023-08-21T03:47:30;31.38;;;28.17;;
37633;SDS011;32048;49.902;22.508;2023-08-21T03:49:57;31.60;;;28.30;;
37633;SDS011;32048;49.902;22.508;2023-08-21T03:52:24;30.55;;;27.45;;
37633;SDS011;32048;49.902;22.508;2023-08-21T03:54:51;31.00;;;27.70;;
37633;SDS011;32048;49.902;22.508;2023-08-21T03:57:19;30.58;;;27.33;;
37633;SDS011;32048;49.902;22.508;2023-08-21T03:59:46;29.88;;;26.65;;
37633;SDS011;32048;49.902;22.508;2023-08-21T04:02:13;28.88;;;25.70;;
37633;SDS011;32048;49.902;22.508;2023-08-21T04:04:40;27.05;;;24.35;;
37633;SDS011;32048;49.902;22.508;2023-08-21T04:07:07;27.80;;;24.65;;
37633;SDS011;32048;49.902;22.508;2023-08-21T04:09:34;26.25;;;23.48;;
37633;SDS011;32048;49.902;22.508;2023-08-21T04:12:01;24.60;;;22.17;;
37633;SDS011;32048;49.902;22.508;2023-08-21T04:14:28;24.27;;;21.85;;
37633;SDS011;32048;49.902;22.508;2023-08-21T04:16:55;23.63;;;21.17;;
37633;SDS011;32048;49.902;22.508;2023-08-21T04:19:22;24.52;;;20.33;;
37633;SDS011;32048;49.902;22.508;2023-08-21T04:21:49;22.55;;;20.25;;
37633;SDS011;32048;49.902;22.508;2023-08-21T04:24:16;22.65;;;18.88;;
37633;SDS011;32048;49.902;22.508;2023-08-21T04:26:43;20.67;;;18.58;;
37633;SDS011;32048;49.902;22.508;2023-08-21T04:29:10;20.10;;;18.00;;
37633;SDS011;32048;49.902;22.508;2023-08-21T04:31:37;20.13;;;18.05;;
37633;SDS011;32048;49.902;22.508;2023-08-21T04:34:04;18.63;;;16.73;;
37633;SDS011;32048;49.902;22.508;2023-08-21T04:36:32;18.90;;;16.38;;
37633;SDS011;32048;49.902;22.508;2023-08-21T04:38:59;18.73;;;15.45;;
37633;SDS011;32048;49.902;22.508;2023-08-21T04:41:26;20.02;;;16.88;;
37633;SDS011;32048;49.902;22.508;2023-08-21T04:43:53;18.20;;;16.30;;
37633;SDS011;32048;49.902;22.508;2023-08-21T04:46:20;17.35;;;15.30;;
37633;SDS011;32048;49.902;22.508;2023-08-21T04:48:48;20.38;;;14.38;;
37633;SDS011;32048;49.902;22.508;2023-08-21T04:51:15;18.75;;;14.10;;
37633;SDS011;32048;49.902;22.508;2023-08-21T04:53:42;16.58;;;13.85;;
37633;SDS011;32048;49.902;22.508;2023-08-21T04:56:09;15.63;;;13.93;;
37633;SDS011;32048;49.902;22.508;2023-08-21T04:58:36;17.92;;;14.30;;
37633;SDS011;32048;49.902;22.508;2023-08-21T05:01:04;14.45;;;13.00;;
37633;SDS011;32048;49.902;22.508;2023-08-21T05:03:31;15.47;;;13.93;;
37633;SDS011;32048;49.902;22.508;2023-08-21T05:05:58;18.67;;;13.77;;
37633;SDS011;32048;49.902;22.508;2023-08-21T05:08:25;16.85;;;14.13;;
37633;SDS011;32048;49.902;22.508;2023-08-21T05:10:58;17.45;;;14.90;;
37633;SDS011;32048;49.902;22.508;2023-08-21T05:13:26;14.98;;;13.48;;
37633;SDS011;32048;49.902;22.508;2023-08-21T05:15:57;14.88;;;13.10;;
37633;SDS011;32048;49.902;22.508;2023-08-21T05:18:25;16.67;;;13.63;;
37633;SDS011;32048;49.902;22.508;2023-08-21T05:20:53;15.23;;;13.65;;
37633;SDS011;32048;49.902;22.508;2023-08-21T05:23:21;15.98;;;13.02;;
37633;SDS011;32048;49.902;22.508;2023-08-21T05:25:49;13.80;;;12.27;;
37633;SDS011;32048;49.902;22.508;2023-08-21T05:28:16;13.68;;;12.30;;
37633;SDS011;32048;49.902;22.508;2023-08-21T05:30:46;14.55;;;12.93;;
37633;SDS011;32048;49.902;22.508;2023-08-21T05:33:13;15.73;;;12.48;;
37633;SDS011;32048;49.902;22.508;2023-08-21T05:35:40;13.00;;;11.68;;
37633;SDS011;32048;49.902;22.508;2023-08-21T05:38:08;13.18;;;11.15;;
37633;SDS011;32048;49.902;22.508;2023-08-21T05:40:35;13.30;;;11.27;;
37633;SDS011;32048;49.902;22.508;2023-08-21T05:43:03;14.73;;;11.93;;
37633;SDS011;32048;49.902;22.508;2023-08-21T05:45:31;13.77;;;10.93;;
37633;SDS011;32048;49.902;22.508;2023-08-21T05:47:58;12.07;;;10.80;;
37633;SDS011;32048;49.902;22.508;2023-08-21T05:50:26;14.48;;;9.98;;
37633;SDS011;32048;49.902;22.508;2023-08-21T05:52:52;15.48;;;10.93;;
37633;SDS011;32048;49.902;22.508;2023-08-21T05:55:21;11.05;;;9.80;;
37633;SDS011;32048;49.902;22.508;2023-08-21T05:57:48;12.27;;;10.40;;
37633;SDS011;32048;49.902;22.508;2023-08-21T06:00:15;10.95;;;9.88;;
37633;SDS011;32048;49.902;22.508;2023-08-21T06:02:43;10.60;;;9.60;;
37633;SDS011;32048;49.902;22.508;2023-08-21T06:05:10;11.30;;;10.00;;
37633;SDS011;32048;49.902;22.508;2023-08-21T06:07:37;11.07;;;8.90;;
37633;SDS011;32048;49.902;22.508;2023-08-21T06:10:05;11.82;;;9.60;;
37633;SDS011;32048;49.902;22.508;2023-08-21T06:12:32;10.75;;;9.48;;
37633;SDS011;32048;49.902;22.508;2023-08-21T06:15:00;10.80;;;9.30;;
37633;SDS011;32048;49.902;22.508;2023-08-21T06:17:27;10.70;;;9.23;;
37633;SDS011;32048;49.902;22.508;2023-08-21T06:19:54;12.03;;;9.40;;
37633;SDS011;32048;49.902;22.508;2023-08-21T06:22:22;14.52;;;10.05;;
37633;SDS011;32048;49.902;22.508;2023-08-21T06:24:49;11.10;;;9.48;;
37633;SDS011;32048;49.902;22.508;2023-08-21T06:27:16;10.50;;;9.40;;
37633;SDS011;32048;49.902;22.508;2023-08-21T06:29:43;10.75;;;9.65;;
37633;SDS011;32048;49.902;22.508;2023-08-21T06:32:10;10.40;;;9.40;;
37633;SDS011;32048;49.902;22.508;2023-08-21T06:34:37;12.15;;;9.90;;
37633;SDS011;32048;49.902;22.508;2023-08-21T06:37:04;12.02;;;10.13;;
37633;SDS011;32048;49.902;22.508;2023-08-21T06:39:32;10.75;;;9.65;;
37633;SDS011;32048;49.902;22.508;2023-08-21T06:41:58;11.13;;;9.18;;
37633;SDS011;32048;49.902;22.508;2023-08-21T06:44:27;10.20;;;9.10;;
37633;SDS011;32048;49.902;22.508;2023-08-21T06:46:54;11.13;;;9.93;;
37633;SDS011;32048;49.902;22.508;2023-08-21T06:49:21;9.98;;;8.95;;
37633;SDS011;32048;49.902;22.508;2023-08-21T06:51:48;10.73;;;9.63;;
37633;SDS011;32048;49.902;22.508;2023-08-21T06:54:15;10.40;;;9.32;;
37633;SDS011;32048;49.902;22.508;2023-08-21T06:56:44;10.57;;;9.57;;
37633;SDS011;32048;49.902;22.508;2023-08-21T06:59:11;10.80;;;9.57;;
37633;SDS011;32048;49.902;22.508;2023-08-21T07:01:38;10.35;;;9.23;;
37633;SDS011;32048;49.902;22.508;2023-08-21T07:04:05;9.90;;;9.00;;
37633;SDS011;32048;49.902;22.508;2023-08-21T07:06:33;10.50;;;9.27;;
37633;SDS011;32048;49.902;22.508;2023-08-21T07:09:00;9.38;;;8.45;;
37633;SDS011;32048;49.902;22.508;2023-08-21T07:11:27;9.60;;;8.70;;
37633;SDS011;32048;49.902;22.508;2023-08-21T07:13:54;9.65;;;8.75;;
37633;SDS011;32048;49.902;22.508;2023-08-21T07:16:21;9.90;;;9.00;;
37633;SDS011;32048;49.902;22.508;2023-08-21T07:18:49;10.65;;;9.13;;
37633;SDS011;32048;49.902;22.508;2023-08-21T07:21:16;9.07;;;8.18;;
37633;SDS011;32048;49.902;22.508;2023-08-21T07:23:59;9.90;;;8.98;;
37633;SDS011;32048;49.902;22.508;2023-08-21T07:26:26;8.80;;;7.93;;
37633;SDS011;32048;49.902;22.508;2023-08-21T07:28:53;7.97;;;7.18;;
37633;SDS011;32048;49.902;22.508;2023-08-21T07:31:20;8.07;;;6.85;;
37633;SDS011;32048;49.902;22.508;2023-08-21T07:33:48;9.07;;;6.68;;
37633;SDS011;32048;49.902;22.508;2023-08-21T07:36:15;11.50;;;7.33;;
37633;SDS011;32048;49.902;22.508;2023-08-21T07:38:45;7.95;;;6.60;;
37633;SDS011;32048;49.902;22.508;2023-08-21T07:41:12;10.47;;;6.57;;
37633;SDS011;32048;49.902;22.508;2023-08-21T07:43:40;8.30;;;6.70;;
37633;SDS011;32048;49.902;22.508;2023-08-21T07:46:08;8.68;;;6.70;;
37633;SDS011;32048;49.902;22.508;2023-08-21T07:48:40;7.70;;;6.72;;
37633;SDS011;32048;49.902;22.508;2023-08-21T07:51:07;7.90;;;6.60;;
37633;SDS011;32048;49.902;22.508;2023-08-21T07:53:41;8.93;;;7.63;;
37633;SDS011;32048;49.902;22.508;2023-08-21T07:56:08;8.20;;;6.60;;
37633;SDS011;32048;49.902;22.508;2023-08-21T07:58:35;7.75;;;7.00;;
37633;SDS011;32048;49.902;22.508;2023-08-21T08:01:02;7.10;;;6.30;;
37633;SDS011;32048;49.902;22.508;2023-08-21T08:03:31;7.20;;;6.50;;
37633;SDS011;32048;49.902;22.508;2023-08-21T08:05:59;8.00;;;7.20;;
37633;SDS011;32048;49.902;22.508;2023-08-21T08:08:26;12.52;;;11.32;;
37633;SDS011;32048;49.902;22.508;2023-08-21T08:10:55;8.45;;;7.05;;
37633;SDS011;32048;49.902;22.508;2023-08-21T08:13:28;7.47;;;6.65;;
37633;SDS011;32048;49.902;22.508;2023-08-21T08:15:55;8.82;;;6.75;;
37633;SDS011;32048;49.902;22.508;2023-08-21T08:18:22;10.10;;;6.93;;
37633;SDS011;32048;49.902;22.508;2023-08-21T08:20:49;8.18;;;5.90;;
37633;SDS011;32048;49.902;22.508;2023-08-21T08:23:16;11.52;;;10.45;;
37633;SDS011;32048;49.902;22.508;2023-08-21T08:25:47;7.10;;;6.40;;
37633;SDS011;32048;49.902;22.508;2023-08-21T08:28:14;7.25;;;6.57;;
37633;SDS011;32048;49.902;22.508;2023-08-21T08:30:41;9.32;;;7.22;;
37633;SDS011;32048;49.902;22.508;2023-08-21T08:33:08;7.70;;;6.05;;
37633;SDS011;32048;49.902;22.508;2023-08-21T08:35:35;8.82;;;6.38;;
37633;SDS011;32048;49.902;22.508;2023-08-21T08:38:03;8.05;;;6.53;;
37633;SDS011;32048;49.902;22.508;2023-08-21T08:40:30;8.20;;;6.22;;
37633;SDS011;32048;49.902;22.508;2023-08-21T08:42:57;8.07;;;6.25;;
37633;SDS011;32048;49.902;22.508;2023-08-21T08:45:28;10.13;;;6.15;;
37633;SDS011;32048;49.902;22.508;2023-08-21T08:48:00;8.02;;;6.20;;
37633;SDS011;32048;49.902;22.508;2023-08-21T08:53:39;10.10;;;6.22;;
37633;SDS011;32048;49.902;22.508;2023-08-21T08:56:06;8.85;;;5.88;;
37633;SDS011;32048;49.902;22.508;2023-08-21T08:58:36;7.30;;;6.40;;
37633;SDS011;32048;49.902;22.508;2023-08-21T09:01:03;7.73;;;6.10;;
37633;SDS011;32048;49.902;22.508;2023-08-21T09:03:34;6.63;;;6.03;;
37633;SDS011;32048;49.902;22.508;2023-08-21T09:06:01;10.48;;;9.52;;
37633;SDS011;32048;49.902;22.508;2023-08-21T09:08:29;7.75;;;6.38;;
37633;SDS011;32048;49.902;22.508;2023-08-21T09:10:56;6.50;;;5.88;;
37633;SDS011;32048;49.902;22.508;2023-08-21T09:13:28;7.90;;;6.03;;
37633;SDS011;32048;49.902;22.508;2023-08-21T09:15:55;6.82;;;6.15;;
37633;SDS011;32048;49.902;22.508;2023-08-21T09:20:49;7.00;;;6.05;;
37633;SDS011;32048;49.902;22.508;2023-08-21T09:23:17;7.25;;;6.47;;
37633;SDS011;32048;49.902;22.508;2023-08-21T09:25:45;6.88;;;6.05;;
37633;SDS011;32048;49.902;22.508;2023-08-21T09:28:18;7.60;;;6.70;;
37633;SDS011;32048;49.902;22.508;2023-08-21T09:30:52;8.75;;;6.93;;
37633;SDS011;32048;49.902;22.508;2023-08-21T09:33:21;8.10;;;6.40;;
37633;SDS011;32048;49.902;22.508;2023-08-21T09:35:53;6.85;;;6.15;;
37633;SDS011;32048;49.902;22.508;2023-08-21T09:38:21;7.60;;;6.30;;
37633;SDS011;32048;49.902;22.508;2023-08-21T09:40:53;8.35;;;6.30;;
37633;SDS011;32048;49.902;22.508;2023-08-21T09:43:22;6.82;;;6.22;;
37633;SDS011;32048;49.902;22.508;2023-08-21T09:45:52;8.13;;;6.43;;
37633;SDS011;32048;49.902;22.508;2023-08-21T09:48:23;7.30;;;6.60;;
37633;SDS011;32048;49.902;22.508;2023-08-21T09:50:56;8.07;;;6.75;;
37633;SDS011;32048;49.902;22.508;2023-08-21T09:53:26;8.05;;;7.25;;
37633;SDS011;32048;49.902;22.508;2023-08-21T09:55:54;7.90;;;6.47;;
37633;SDS011;32048;49.902;22.508;2023-08-21T09:58:22;8.07;;;6.45;;
37633;SDS011;32048;49.902;22.508;2023-08-21T10:03:20;7.22;;;6.53;;
37633;SDS011;32048;49.902;22.508;2023-08-21T10:05:48;8.88;;;6.80;;
37633;SDS011;32048;49.902;22.508;2023-08-21T10:10:47;7.78;;;6.88;;
37633;SDS011;32048;49.902;22.508;2023-08-21T10:13:15;8.68;;;6.80;;
37633;SDS011;32048;49.902;22.508;2023-08-21T10:15:42;8.32;;;7.20;;
37633;SDS011;32048;49.902;22.508;2023-08-21T10:20:50;8.52;;;6.95;;
37633;SDS011;32048;49.902;22.508;2023-08-21T10:23:26;7.75;;;7.05;;
37633;SDS011;32048;49.902;22.508;2023-08-21T10:25:57;7.68;;;6.90;;
37633;SDS011;32048;49.902;22.508;2023-08-21T10:34:05;7.90;;;5.63;;
37633;SDS011;32048;49.902;22.508;2023-08-21T10:39:28;10.20;;;9.23;;
37633;SDS011;32048;49.902;22.508;2023-08-21T10:42:00;7.47;;;6.78;;
37633;SDS011;32048;49.902;22.508;2023-08-21T10:49:46;6.25;;;5.65;;
37633;SDS011;32048;49.902;22.508;2023-08-21T10:52:14;6.55;;;5.95;;
37633;SDS011;32048;49.902;22.508;2023-08-21T10:54:47;8.50;;;6.18;;
37633;SDS011;32048;49.902;22.508;2023-08-21T10:57:15;10.25;;;6.47;;
37633;SDS011;32048;49.902;22.508;2023-08-21T11:02:24;7.65;;;6.60;;
37633;SDS011;32048;49.902;22.508;2023-08-21T11:04:52;9.07;;;6.53;;
37633;SDS011;32048;49.902;22.508;2023-08-21T11:07:20;8.30;;;7.47;;
37633;SDS011;32048;49.902;22.508;2023-08-21T11:09:48;12.05;;;10.85;;
37633;SDS011;32048;49.902;22.508;2023-08-21T11:12:19;12.10;;;7.35;;
37633;SDS011;32048;49.902;22.508;2023-08-21T11:14:48;7.95;;;6.95;;
37633;SDS011;32048;49.902;22.508;2023-08-21T11:17:16;7.55;;;6.85;;
37633;SDS011;32048;49.902;22.508;2023-08-21T11:20:00;8.23;;;6.47;;
37633;SDS011;32048;49.902;22.508;2023-08-21T11:22:31;15.45;;;13.68;;
37633;SDS011;32048;49.902;22.508;2023-08-21T11:24:59;8.23;;;7.15;;
37633;SDS011;32048;49.902;22.508;2023-08-21T11:27:26;7.03;;;6.40;;
37633;SDS011;32048;49.902;22.508;2023-08-21T11:29:54;7.10;;;6.40;;
37633;SDS011;32048;49.902;22.508;2023-08-21T11:32:21;12.15;;;7.30;;
37633;SDS011;32048;49.902;22.508;2023-08-21T11:34:56;7.18;;;6.32;;
37633;SDS011;32048;49.902;22.508;2023-08-21T11:37:25;7.53;;;6.35;;
37633;SDS011;32048;49.902;22.508;2023-08-21T11:39:54;6.57;;;5.93;;
37633;SDS011;32048;49.902;22.508;2023-08-21T11:42:27;7.32;;;5.70;;
37633;SDS011;32048;49.902;22.508;2023-08-21T11:45:03;7.93;;;5.65;;
37633;SDS011;32048;49.902;22.508;2023-08-21T11:47:31;8.15;;;5.90;;
37633;SDS011;32048;49.902;22.508;2023-08-21T11:50:05;6.68;;;5.55;;
37633;SDS011;32048;49.902;22.508;2023-08-21T11:52:34;5.88;;;5.28;;
37633;SDS011;32048;49.902;22.508;2023-08-21T11:55:11;6.45;;;5.85;;
37633;SDS011;32048;49.902;22.508;2023-08-21T11:57:47;6.30;;;5.70;;
37633;SDS011;32048;49.902;22.508;2023-08-21T12:00:18;14.02;;;12.63;;
37633;SDS011;32048;49.902;22.508;2023-08-21T12:02:56;10.75;;;9.65;;
37633;SDS011;32048;49.902;22.508;2023-08-21T12:05:28;8.68;;;7.53;;
37633;SDS011;32048;49.902;22.508;2023-08-21T12:07:55;8.85;;;6.72;;
37633;SDS011;32048;49.902;22.508;2023-08-21T12:10:25;8.13;;;6.55;;
37633;SDS011;32048;49.902;22.508;2023-08-21T12:12:52;8.32;;;6.65;;
37633;SDS011;32048;49.902;22.508;2023-08-21T12:15:23;7.55;;;6.68;;
37633;SDS011;32048;49.902;22.508;2023-08-21T12:17:50;7.53;;;6.53;;
37633;SDS011;32048;49.902;22.508;2023-08-21T12:20:18;9.67;;;7.50;;
37633;SDS011;32048;49.902;22.508;2023-08-21T12:22:45;10.45;;;7.57;;
37633;SDS011;32048;49.902;22.508;2023-08-21T12:25:29;9.27;;;7.47;;
37633;SDS011;32048;49.902;22.508;2023-08-21T12:27:58;10.20;;;8.00;;
37633;SDS011;32048;49.902;22.508;2023-08-21T12:30:35;9.05;;;8.10;;
37633;SDS011;32048;49.902;22.508;2023-08-21T12:33:02;15.10;;;9.07;;
37633;SDS011;32048;49.902;22.508;2023-08-21T12:35:47;13.07;;;9.88;;
37633;SDS011;32048;49.902;22.508;2023-08-21T12:38:14;14.50;;;11.55;;
37633;SDS011;32048;49.902;22.508;2023-08-21T12:40:42;16.85;;;11.32;;
37633;SDS011;32048;49.902;22.508;2023-08-21T12:43:08;21.00;;;11.65;;
37633;SDS011;32048;49.902;22.508;2023-08-21T12:45:36;17.10;;;10.95;;
37633;SDS011;32048;49.902;22.508;2023-08-21T12:48:03;14.07;;;11.40;;
37633;SDS011;32048;49.902;22.508;2023-08-21T12:50:31;18.77;;;14.60;;
37633;SDS011;32048;49.902;22.508;2023-08-21T12:52:59;23.88;;;19.90;;
37633;SDS011;32048;49.902;22.508;2023-08-21T12:55:27;17.08;;;12.15;;
37633;SDS011;32048;49.902;22.508;2023-08-21T12:57:58;17.38;;;11.75;;
37633;SDS011;32048;49.902;22.508;2023-08-21T13:00:25;12.35;;;10.98;;
37633;SDS011;32048;49.902;22.508;2023-08-21T13:02:52;16.17;;;10.70;;
37633;SDS011;32048;49.902;22.508;2023-08-21T13:05:20;12.27;;;9.95;;
37633;SDS011;32048;49.902;22.508;2023-08-21T13:07:47;12.13;;;10.75;;
37633;SDS011;32048;49.902;22.508;2023-08-21T13:10:14;16.70;;;10.63;;
37633;SDS011;32048;49.902;22.508;2023-08-21T13:12:41;13.27;;;10.02;;
37633;SDS011;32048;49.902;22.508;2023-08-21T13:15:09;13.73;;;10.00;;
37633;SDS011;32048;49.902;22.508;2023-08-21T13:17:36;13.32;;;10.02;;
37633;SDS011;32048;49.902;22.508;2023-08-21T13:20:04;19.30;;;10.65;;
37633;SDS011;32048;49.902;22.508;2023-08-21T13:22:47;14.77;;;10.95;;
37633;SDS011;32048;49.902;22.508;2023-08-21T13:25:17;14.20;;;11.30;;
37633;SDS011;32048;49.902;22.508;2023-08-21T13:27:51;15.55;;;11.05;;
37633;SDS011;32048;49.902;22.508;2023-08-21T13:30:19;13.57;;;12.18;;
37633;SDS011;32048;49.902;22.508;2023-08-21T13:32:47;22.33;;;11.32;;
37633;SDS011;32048;49.902;22.508;2023-08-21T13:35:14;13.75;;;11.20;;
37633;SDS011;32048;49.902;22.508;2023-08-21T13:37:42;14.93;;;11.45;;
37633;SDS011;32048;49.902;22.508;2023-08-21T13:40:09;12.13;;;10.73;;
37633;SDS011;32048;49.902;22.508;2023-08-21T13:42:40;16.45;;;12.75;;
37633;SDS011;32048;49.902;22.508;2023-08-21T13:45:09;20.65;;;14.88;;
37633;SDS011;32048;49.902;22.508;2023-08-21T13:47:41;19.70;;;13.85;;
37633;SDS011;32048;49.902;22.508;2023-08-21T13:50:10;13.30;;;10.57;;
37633;SDS011;32048;49.902;22.508;2023-08-21T13:52:39;15.15;;;11.05;;
37633;SDS011;32048;49.902;22.508;2023-08-21T13:55:08;16.17;;;12.43;;
37633;SDS011;32048;49.902;22.508;2023-08-21T13:57:36;15.32;;;11.40;;
37633;SDS011;32048;49.902;22.508;2023-08-21T14:02:39;12.68;;;11.25;;
37633;SDS011;32048;49.902;22.508;2023-08-21T14:05:08;11.55;;;10.38;;
37633;SDS011;32048;49.902;22.508;2023-08-21T14:07:37;13.38;;;10.25;;
37633;SDS011;32048;49.902;22.508;2023-08-21T14:10:07;11.38;;;10.20;;
37633;SDS011;32048;49.902;22.508;2023-08-21T14:12:34;16.15;;;9.90;;
37633;SDS011;32048;49.902;22.508;2023-08-21T14:15:05;10.10;;;9.07;;
37633;SDS011;32048;49.902;22.508;2023-08-21T14:17:33;12.45;;;9.15;;
37633;SDS011;32048;49.902;22.508;2023-08-21T14:20:00;11.65;;;9.23;;
37633;SDS011;32048;49.902;22.508;2023-08-21T14:22:27;14.35;;;10.70;;
37633;SDS011;32048;49.902;22.508;2023-08-21T14:24:55;13.52;;;11.75;;
37633;SDS011;32048;49.902;22.508;2023-08-21T14:27:21;11.82;;;10.30;;
37633;SDS011;32048;49.902;22.508;2023-08-21T14:29:49;13.32;;;9.60;;
37633;SDS011;32048;49.902;22.508;2023-08-21T14:32:16;10.88;;;9.63;;
37633;SDS011;32048;49.902;22.508;2023-08-21T14:34:43;12.93;;;9.48;;
37633;SDS011;32048;49.902;22.508;2023-08-21T14:37:10;11.13;;;9.05;;
37633;SDS011;32048;49.902;22.508;2023-08-21T14:39:42;11.15;;;9.50;;
37633;SDS011;32048;49.902;22.508;2023-08-21T14:42:11;10.82;;;8.70;;
37633;SDS011;32048;49.902;22.508;2023-08-21T14:44:40;16.50;;;13.57;;
37633;SDS011;32048;49.902;22.508;2023-08-21T14:47:07;12.75;;;9.85;;
37633;SDS011;32048;49.902;22.508;2023-08-21T14:49:34;10.87;;;9.17;;
37633;SDS011;32048;49.902;22.508;2023-08-21T14:52:02;13.30;;;8.57;;
37633;SDS011;32048;49.902;22.508;2023-08-21T14:54:30;17.55;;;9.45;;
37633;SDS011;32048;49.902;22.508;2023-08-21T14:56:57;10.05;;;8.43;;